Hatchel, Texas
Current Conditions -  °F | °C
As of 2:58 AM on Thursday 18 Dec 2014 (Local Time) from KDYS Reporting Station
Clear Clear  
Wind Chill: 43°   Ceiling: Unl
Heat Index: 46°   Visibility: 10mi
Dew Point: 40°   Wind: 6mph
Humidity: 81%   Direction: 180°S
Pressure: 30.04"   Gusts: NA
Location:  31.975°N, 99.9034°W
Report Text: KDYS 180858Z AUTO 18005KT 10SM CLR 08/05 A3004 RMK AO2 SLP165 T00770047 55003
Loading
Personal Weather Stations






























Interactive Weather Map New forecast layout! Learn more

10-Day Weather Forecast

Advertisements
Track Severe Weather on mobile